Time;durP1;ratioP1;P1;durP2;ratioP2;P2;SDS_P1;SDS_P2;PMS_P1;PMS_P2;Temp;Humidity;BMP_temperature;BMP_pressure;BME280_temperature;BME280_humidity;BME280_pressure;Samples;Min_cycle;Max_cycle;Signal;HPM_P1;HPM_P2
2022/03/18 00:00:20;;;;;;;12.82;7.35;;;;;;;-1.09;46.53;102910.28;5048879;28;20041;-75
2022/03/18 00:02:49;;;;;;;13.13;8.02;;;;;;;-1.13;47.10;102911.66;5049245;28;20036;-75
2022/03/18 00:05:16;;;;;;;12.25;7.55;;;;;;;-1.42;46.54;102901.41;5049100;28;20160;-75
2022/03/18 00:07:42;;;;;;;14.00;8.05;;;;;;;-1.15;47.18;102902.94;5048126;28;20082;-75
2022/03/18 00:10:11;;;;;;;13.68;7.38;;;;;;;-1.38;47.18;102908.63;5048921;28;20041;-75
2022/03/18 00:12:37;;;;;;;15.43;7.30;;;;;;;-1.25;46.69;102920.00;5048545;28;20556;-75
2022/03/18 00:15:08;;;;;;;18.50;7.45;;;;;;;-1.28;47.16;102900.03;5049525;28;20037;-75
2022/03/18 00:17:34;;;;;;;24.80;9.40;;;;;;;-1.27;47.59;102918.19;5048911;28;20028;-76
2022/03/18 00:19:59;;;;;;;13.02;7.97;;;;;;;-1.07;47.25;102919.06;5048012;28;20045;-76
2022/03/18 00:22:25;;;;;;;19.85;7.30;;;;;;;-1.32;47.30;102903.09;5048533;28;20341;-75
2022/03/18 00:24:50;;;;;;;19.45;9.15;;;;;;;-1.44;48.27;102914.91;5025848;28;20110;-75
2022/03/18 00:27:16;;;;;;;11.45;6.18;;;;;;;-1.36;47.75;102912.25;5048602;28;20102;-75
2022/03/18 00:29:42;;;;;;;16.48;6.93;;;;;;;-1.43;48.16;102906.41;5049481;28;20028;-75
2022/03/18 00:32:08;;;;;;;12.45;7.38;;;;;;;-1.50;47.74;102925.53;5035719;28;20134;-75
2022/03/18 00:34:34;;;;;;;13.30;8.05;;;;;;;-1.49;47.98;102920.53;5047216;28;20055;-75
2022/03/18 00:37:00;;;;;;;19.13;10.15;;;;;;;-1.34;47.73;102925.25;5046257;28;20379;-75
2022/03/18 00:39:26;;;;;;;13.57;7.55;;;;;;;-1.49;47.82;102920.53;5043482;28;20492;-75
2022/03/18 00:41:51;;;;;;;18.23;8.15;;;;;;;-1.63;47.98;102907.22;5043999;28;20032;-79
2022/03/18 00:44:16;;;;;;;16.92;6.90;;;;;;;-1.54;47.78;102928.63;5039236;28;20056;-76
2022/03/18 00:46:42;;;;;;;11.05;7.15;;;;;;;-1.34;47.35;102931.28;5043203;28;20481;-78
2022/03/18 00:52:06;;;;;;;15.25;9.95;;;;;;;-1.41;47.93;102931.50;5030630;28;20048;-78
2022/03/18 00:54:33;;;;;;;16.10;7.63;;;;;;;-1.61;47.81;102932.31;5047254;28;20076;-77
2022/03/18 00:56:59;;;;;;;17.70;9.13;;;;;;;-1.45;47.84;102934.59;5043559;28;20017;-78
2022/03/18 00:59:26;;;;;;;11.45;7.28;;;;;;;-1.67;47.38;102933.44;5044116;28;20489;-78
2022/03/18 01:01:52;;;;;;;18.00;9.52;;;;;;;-1.51;47.43;102934.03;5041246;28;20136;-78
2022/03/18 01:04:21;;;;;;;10.23;5.68;;;;;;;-1.67;47.53;102936.91;5045427;28;20099;-75
2022/03/18 01:06:49;;;;;;;14.25;7.63;;;;;;;-1.75;47.61;102937.91;5046509;28;20497;-76
2022/03/18 01:09:15;;;;;;;16.38;7.28;;;;;;;-1.75;47.87;102923.34;5028285;28;20056;-75
2022/03/18 01:11:41;;;;;;;13.55;7.93;;;;;;;-1.70;47.57;102934.97;5047314;28;20155;-76
2022/03/18 01:14:07;;;;;;;21.33;9.15;;;;;;;-1.64;47.56;102932.06;5041375;28;20501;-77
2022/03/18 01:16:32;;;;;;;16.02;11.40;;;;;;;-1.76;47.54;102934.41;5047955;28;20041;-76
2022/03/18 01:18:58;;;;;;;11.82;7.43;;;;;;;-1.83;47.73;102908.88;5048228;28;20029;-76
2022/03/18 01:21:23;;;;;;;11.90;7.25;;;;;;;-1.89;47.62;102915.16;5049084;28;20477;-76
2022/03/18 01:23:49;;;;;;;13.40;9.00;;;;;;;-1.73;47.36;102920.94;5048843;28;20025;-75
2022/03/18 01:26:14;;;;;;;19.08;10.07;;;;;;;-1.63;47.70;102914.94;5043570;28;20041;-77
2022/03/18 01:28:40;;;;;;;14.82;9.45;;;;;;;-1.75;47.67;102917.31;5047554;28;20469;-76
2022/03/18 01:31:05;;;;;;;12.88;8.13;;;;;;;-1.77;47.70;102912.00;5043501;28;20124;-75
2022/03/18 01:33:33;;;;;;;27.88;10.60;;;;;;;-1.66;47.31;102923.28;5040492;28;20067;-75
2022/03/18 01:35:59;;;;;;;13.32;7.80;;;;;;;-1.79;47.84;102928.09;5032674;28;20029;-75
2022/03/18 01:38:24;;;;;;;14.30;7.75;;;;;;;-1.73;46.83;102926.97;5032554;28;20031;-75
2022/03/18 01:40:51;;;;;;;12.77;7.93;;;;;;;-1.87;47.32;102916.19;5042111;28;20041;-75
2022/03/18 01:43:17;;;;;;;16.00;6.63;;;;;;;-1.87;46.69;102929.97;5047217;28;20059;-76
2022/03/18 01:45:42;;;;;;;15.30;7.78;;;;;;;-1.74;46.54;102929.41;5027071;28;20488;-76
2022/03/18 01:48:08;;;;;;;12.43;8.60;;;;;;;-1.88;47.20;102927.25;5022418;28;20132;-76
2022/03/18 01:50:34;;;;;;;14.63;7.40;;;;;;;-1.94;46.70;102909.59;5037254;28;20033;-76
2022/03/18 01:53:00;;;;;;;9.30;5.72;;;;;;;-1.80;46.45;102927.19;5046928;28;20072;-75
2022/03/18 01:55:26;;;;;;;11.73;7.22;;;;;;;-1.46;45.57;102911.28;5044540;28;20033;-75
2022/03/18 01:57:51;;;;;;;12.77;7.25;;;;;;;-1.59;45.92;102928.22;5046118;28;20388;-76
2022/03/18 02:00:21;;;;;;;19.38;9.38;;;;;;;-1.66;45.54;102915.56;5024340;28;20052;-75
2022/03/18 02:02:48;;;;;;;13.70;7.40;;;;;;;-1.56;45.21;102925.91;5061351;28;20033;-75
2022/03/18 02:05:14;;;;;;;15.02;8.27;;;;;;;-1.54;45.12;102926.94;5042449;28;20048;-76
2022/03/18 02:07:39;;;;;;;14.30;8.85;;;;;;;-1.76;45.92;102934.41;5045968;28;20102;-75
2022/03/18 02:10:06;;;;;;;14.18;6.55;;;;;;;-1.79;45.62;102925.50;5030276;28;20041;-76
2022/03/18 02:12:32;;;;;;;10.80;7.05;;;;;;;-1.88;45.06;102924.69;5061296;28;20056;-75
2022/03/18 02:14:58;;;;;;;12.30;6.75;;;;;;;-1.80;45.32;102936.59;5046027;28;20028;-75
2022/03/18 02:17:24;;;;;;;19.30;7.75;;;;;;;-1.72;45.46;102939.06;5047793;28;20025;-78
2022/03/18 02:19:49;;;;;;;17.63;7.35;;;;;;;-1.77;45.26;102942.91;5024785;28;20052;-75
2022/03/18 02:22:19;;;;;;;17.77;7.68;;;;;;;-1.83;45.41;102933.72;5045794;28;20056;-75
2022/03/18 02:24:46;;;;;;;13.93;6.93;;;;;;;-1.47;44.85;102946.44;5044021;28;20045;-75
2022/03/18 02:27:14;;;;;;;12.35;7.07;;;;;;;-1.71;45.27;102933.16;5045474;28;20037;-74
2022/03/18 02:29:41;;;;;;;11.15;8.50;;;;;;;-2.03;45.75;102942.19;5058002;28;20037;-75
2022/03/18 02:32:07;;;;;;;13.10;8.38;;;;;;;-1.72;45.41;102948.47;5041902;28;20131;-74
2022/03/18 02:34:35;;;;;;;19.13;11.52;;;;;;;-1.86;45.22;102938.59;5028253;28;20116;-78
2022/03/18 02:37:01;;;;;;;13.48;7.97;;;;;;;-1.91;46.18;102953.59;5040553;28;20057;-77
2022/03/18 02:39:27;;;;;;;12.65;7.18;;;;;;;-1.90;45.83;102957.97;5027499;28;20400;-77
2022/03/18 02:41:52;;;;;;;14.45;8.48;;;;;;;-1.76;45.30;102947.25;5023250;28;20032;-76
2022/03/18 02:44:18;;;;;;;12.55;6.63;;;;;;;-2.07;45.71;102960.69;5044694;28;20045;-77
2022/03/18 02:46:44;;;;;;;13.68;7.35;;;;;;;-1.92;45.94;102969.78;5037513;28;20049;-77
2022/03/18 02:49:09;;;;;;;11.20;6.15;;;;;;;-2.21;46.07;102967.13;5045719;28;20052;-77
2022/03/18 02:51:37;;;;;;;11.70;6.65;;;;;;;-2.26;46.56;102965.78;5044554;28;20037;-78
2022/03/18 02:54:05;;;;;;;10.57;6.35;;;;;;;-2.24;46.47;102965.16;5027694;28;20033;-78
2022/03/18 02:56:32;;;;;;;9.82;6.30;;;;;;;-2.42;46.98;102976.31;5043901;28;20041;-75
2022/03/18 02:58:58;;;;;;;14.48;6.00;;;;;;;-2.43;47.21;102972.84;5050119;28;20033;-77
2022/03/18 03:01:25;;;;;;;16.67;6.82;;;;;;;-2.46;47.52;102979.34;5049805;28;20049;-76
2022/03/18 03:03:51;;;;;;;12.38;6.07;;;;;;;-2.41;47.85;102979.03;5045264;28;20053;-77
2022/03/18 03:09:00;;;;;;;12.48;6.07;;;;;;;-2.47;47.29;102974.97;5037086;28;20040;-76
2022/03/18 03:11:26;;;;;;;11.13;5.90;;;;;;;-2.42;47.22;102978.88;5037082;28;20032;-77
2022/03/18 03:13:52;;;;;;;11.40;5.65;;;;;;;-2.45;47.46;102989.78;5049660;28;20040;-76
2022/03/18 03:16:21;;;;;;;10.48;5.95;;;;;;;-2.37;47.15;102990.50;5049595;28;20090;-77
2022/03/18 03:18:47;;;;;;;12.77;7.00;;;;;;;-2.36;46.58;102988.06;5049497;28;20053;-77
2022/03/18 03:21:14;;;;;;;8.02;4.97;;;;;;;-2.43;46.69;102983.13;5049827;28;20058;-77
2022/03/18 03:23:42;;;;;;;12.70;6.78;;;;;;;-2.29;46.50;102991.22;5049233;28;20041;-76
2022/03/18 03:26:08;;;;;;;9.18;4.88;;;;;;;-2.36;46.44;102984.59;5044802;28;20041;-76
2022/03/18 03:28:35;;;;;;;12.73;5.85;;;;;;;-2.38;46.74;102989.59;5049188;28;20072;-76
2022/03/18 03:31:00;;;;;;;12.60;6.18;;;;;;;-2.26;46.59;102992.41;5050711;28;20114;-76
2022/03/18 03:33:26;;;;;;;22.25;8.70;;;;;;;-2.35;46.76;102988.97;5049913;28;20041;-76
2022/03/18 03:35:53;;;;;;;12.30;7.68;;;;;;;-2.40;46.55;102996.25;5048220;28;20397;-75
2022/03/18 03:38:21;;;;;;;23.67;9.23;;;;;;;-2.28;46.73;102983.63;5030562;28;20103;-75
2022/03/18 03:40:47;;;;;;;12.48;7.65;;;;;;;-2.35;47.32;102989.88;5031258;28;20440;-75
2022/03/18 03:43:13;;;;;;;10.23;5.90;;;;;;;-2.36;46.42;102993.22;5061646;28;20147;-77
2022/03/18 03:45:40;;;;;;;11.27;6.45;;;;;;;-2.33;46.65;102985.78;5036261;28;20050;-76
2022/03/18 03:48:08;;;;;;;9.88;7.07;;;;;;;-2.19;46.05;103007.63;5045508;28;20055;-77
2022/03/18 03:50:34;;;;;;;13.48;6.07;;;;;;;-2.21;46.41;103014.31;5048508;28;20045;-76
2022/03/18 03:53:00;;;;;;;21.75;10.35;;;;;;;-2.14;45.99;103010.66;5047072;28;20041;-75
2022/03/18 03:55:27;;;;;;;17.67;11.60;;;;;;;-2.14;46.63;103008.97;5046581;28;20049;-76
2022/03/18 03:57:52;;;;;;;14.15;9.02;;;;;;;-2.23;46.06;103004.63;5039022;28;20041;-76
2022/03/18 04:00:18;;;;;;;16.13;9.40;;;;;;;-2.22;46.09;103009.03;5048750;28;20564;-76
2022/03/18 04:02:44;;;;;;;16.25;9.02;;;;;;;-2.25;45.80;103013.88;5048527;28;20435;-76
2022/03/18 04:05:10;;;;;;;13.95;8.00;;;;;;;-2.26;46.24;103006.94;5029123;28;20040;-75
2022/03/18 04:07:37;;;;;;;11.60;8.02;;;;;;;-2.24;46.34;103024.31;5047290;28;20096;-76
2022/03/18 04:10:04;;;;;;;13.68;9.43;;;;;;;-2.14;46.48;103029.53;5041630;28;20396;-75
2022/03/18 04:12:30;;;;;;;21.13;13.73;;;;;;;-2.27;46.88;103020.53;5038608;28;20033;-76
2022/03/18 04:14:55;;;;;;;22.88;12.50;;;;;;;-1.99;46.49;103035.22;5040801;28;20036;-78
2022/03/18 04:17:22;;;;;;;15.43;11.40;;;;;;;-2.28;46.90;103029.91;5055395;28;20041;-78
2022/03/18 04:19:48;;;;;;;13.63;8.63;;;;;;;-2.24;47.39;103047.47;5046833;28;20072;-77
2022/03/18 04:22:13;;;;;;;18.95;9.15;;;;;;;-2.40;46.96;103042.53;5030830;28;20044;-77
2022/03/18 04:24:39;;;;;;;17.67;7.97;;;;;;;-2.37;47.44;103062.47;5040736;28;20038;-77
2022/03/18 04:27:04;;;;;;;18.65;8.27;;;;;;;-2.24;46.91;103055.19;5031037;28;20377;-76
2022/03/18 04:29:31;;;;;;;18.60;10.75;;;;;;;-2.19;46.81;103059.06;5046677;28;20084;-77
2022/03/18 04:31:58;;;;;;;15.50;8.40;;;;;;;-2.12;46.11;103058.88;5048176;28;20072;-77
2022/03/18 04:34:24;;;;;;;15.90;7.03;;;;;;;-2.30;46.41;103063.97;5037900;28;20041;-77
2022/03/18 04:36:49;;;;;;;20.08;6.75;;;;;;;-2.07;46.01;103066.13;5042507;28;20366;-76
2022/03/18 04:39:15;;;;;;;10.68;6.47;;;;;;;-2.21;45.87;103072.56;5044475;28;20047;-76
2022/03/18 04:41:41;;;;;;;13.05;5.40;;;;;;;-2.29;46.36;103071.84;5064358;28;20048;-76
2022/03/18 04:44:07;;;;;;;11.38;7.65;;;;;;;-1.88;45.57;103077.38;5044386;28;20029;-75
2022/03/18 04:46:32;;;;;;;14.27;8.18;;;;;;;-2.18;46.16;103084.06;5043575;28;20041;-76
2022/03/18 04:48:59;;;;;;;18.52;10.90;;;;;;;-2.14;46.03;103080.97;5047715;28;20041;-76
2022/03/18 04:51:25;;;;;;;13.00;8.48;;;;;;;-2.02;46.19;103083.81;5029616;28;20452;-76
2022/03/18 04:53:51;;;;;;;32.20;16.00;;;;;;;-2.04;45.90;103094.72;5047984;28;20029;-77
2022/03/18 04:59:01;;;;;;;13.55;7.55;;;;;;;-2.00;45.53;103095.16;5056021;28;20132;-77
2022/03/18 05:01:27;;;;;;;24.50;11.57;;;;;;;-1.86;45.57;103087.81;5047116;28;20460;-76
2022/03/18 05:03:53;;;;;;;21.83;10.85;;;;;;;-2.12;46.39;103088.84;5047353;28;20041;-76
2022/03/18 05:06:20;;;;;;;18.52;12.35;;;;;;;-1.85;46.18;103103.41;5040722;28;20041;-76
2022/03/18 05:08:45;;;;;;;16.08;8.43;;;;;;;-1.98;45.87;103088.47;5028787;28;20029;-76
2022/03/18 05:11:12;;;;;;;14.85;7.75;;;;;;;-1.95;46.04;103080.16;5042575;28;20048;-76
2022/03/18 05:13:38;;;;;;;16.27;9.13;;;;;;;-1.89;46.05;103087.56;5046756;28;20044;-75
2022/03/18 05:16:04;;;;;;;15.02;8.45;;;;;;;-1.77;46.48;103099.88;5043128;28;20050;-76
2022/03/18 05:18:30;;;;;;;20.00;10.70;;;;;;;-1.93;45.81;103102.69;5047772;28;20120;-77
2022/03/18 05:20:55;;;;;;;22.48;10.23;;;;;;;-1.95;46.57;103111.91;5046741;28;21487;-77
2022/03/18 05:23:21;;;;;;;15.95;7.40;;;;;;;-1.99;47.02;103102.13;5062754;28;20037;-77
2022/03/18 05:25:46;;;;;;;13.30;7.57;;;;;;;-1.93;46.53;103110.41;5046393;28;20056;-76
2022/03/18 05:28:12;;;;;;;12.30;8.20;;;;;;;-1.70;46.81;103120.28;5045333;28;20102;-75
2022/03/18 05:30:39;;;;;;;21.48;9.55;;;;;;;-1.56;46.68;103107.78;5040841;28;20048;-76
2022/03/18 05:33:05;;;;;;;10.13;6.68;;;;;;;-1.65;45.82;103125.84;5044555;28;20029;-78
2022/03/18 05:35:30;;;;;;;16.27;8.07;;;;;;;-1.46;45.85;103131.03;5037419;28;20029;-78
2022/03/18 05:37:56;;;;;;;19.23;7.60;;;;;;;-1.34;44.99;103126.13;5041113;28;20385;-78
2022/03/18 05:40:21;;;;;;;11.68;6.75;;;;;;;-1.14;44.67;103134.00;5034180;28;20049;-78
2022/03/18 05:42:47;;;;;;;13.95;7.45;;;;;;;-1.11;44.93;103125.66;5044607;28;20520;-76
2022/03/18 05:45:14;;;;;;;15.93;8.20;;;;;;;-1.07;45.06;103128.63;5044425;28;20107;-80
2022/03/18 05:47:40;;;;;;;13.57;6.20;;;;;;;-1.14;44.36;103127.94;5049087;28;20037;-78
2022/03/18 05:50:07;;;;;;;15.13;7.70;;;;;;;-1.03;44.68;103139.22;5029399;28;20045;-79
2022/03/18 05:52:36;;;;;;;12.30;7.32;;;;;;;-0.98;45.18;103136.31;5047757;28;20043;-79
2022/03/18 05:55:02;;;;;;;11.05;7.22;;;;;;;-0.87;44.14;103135.63;5043341;28;20054;-76
2022/03/18 05:57:28;;;;;;;13.18;7.32;;;;;;;-0.90;43.68;103126.69;5031660;28;20087;-79
2022/03/18 05:59:56;;;;;;;14.00;8.95;;;;;;;-0.75;44.04;103129.72;5038401;28;20036;-74
2022/03/18 06:02:22;;;;;;;19.75;9.15;;;;;;;-0.54;43.87;103133.31;5037208;28;20062;-78
2022/03/18 06:04:48;;;;;;;9.93;7.47;;;;;;;-0.57;43.91;103121.06;5033628;28;20053;-78
2022/03/18 06:07:14;;;;;;;13.60;6.22;;;;;;;-0.38;42.85;103131.31;5028788;28;20769;-79
2022/03/18 06:12:24;;;;;;;12.43;6.82;;;;;;;-0.02;41.68;103125.00;5048008;28;20507;-80
2022/03/18 06:14:50;;;;;;;11.98;8.80;;;;;;;0.04;41.74;103117.78;5048594;28;20036;-77
2022/03/18 06:17:15;;;;;;;16.88;7.82;;;;;;;0.44;42.23;103143.53;5048256;28;20037;-79
2022/03/18 06:19:41;;;;;;;13.18;9.30;;;;;;;0.48;41.12;103131.00;5047264;28;20041;-80
2022/03/18 06:22:08;;;;;;;18.10;7.93;;;;;;;0.37;40.87;103122.34;5043010;28;20042;-78
2022/03/18 06:24:34;;;;;;;17.08;8.93;;;;;;;0.40;41.06;103137.22;5036456;28;20344;-78
2022/03/18 06:27:01;;;;;;;14.50;6.65;;;;;;;0.44;40.71;103138.38;5042031;28;20116;-78
2022/03/18 06:29:27;;;;;;;8.73;6.00;;;;;;;0.66;41.21;103138.53;5028055;28;20034;-79
2022/03/18 06:31:53;;;;;;;12.70;6.30;;;;;;;0.45;40.83;103146.25;5044615;28;20124;-78
2022/03/18 06:34:22;;;;;;;16.67;7.40;;;;;;;0.60;41.23;103144.06;5043183;28;20067;-79
2022/03/18 06:36:49;;;;;;;10.10;5.90;;;;;;;0.35;40.63;103144.56;5044486;28;20051;-78
2022/03/18 06:39:15;;;;;;;13.55;6.90;;;;;;;0.39;40.57;103145.72;5031767;28;20056;-77
2022/03/18 06:41:40;;;;;;;9.60;6.05;;;;;;;0.33;40.38;103140.06;5051410;28;20036;-79
2022/03/18 06:44:08;;;;;;;12.35;6.43;;;;;;;0.40;41.08;103153.63;5050026;28;20044;-79
2022/03/18 06:46:35;;;;;;;16.13;6.57;;;;;;;0.35;40.79;103148.81;5047135;28;20147;-78
2022/03/18 06:49:01;;;;;;;7.45;5.28;;;;;;;0.55;40.76;103155.69;5039348;28;20134;-76
2022/03/18 06:51:27;;;;;;;34.65;6.90;;;;;;;0.87;39.98;103149.72;5044855;28;20060;-79
2022/03/18 06:53:52;;;;;;;14.52;7.05;;;;;;;0.69;41.05;103134.50;5051500;28;20021;-81
2022/03/18 06:56:18;;;;;;;9.63;6.70;;;;;;;0.38;41.04;103133.59;5036868;28;20385;-80
2022/03/18 06:58:44;;;;;;;10.70;6.63;;;;;;;0.38;41.28;103147.41;5036409;28;20460;-77
2022/03/18 07:01:10;;;;;;;9.10;6.32;;;;;;;0.61;41.41;103149.38;5044706;28;20388;-80
2022/03/18 07:03:35;;;;;;;19.88;10.05;;;;;;;0.72;41.13;103144.19;5045711;28;20171;-79
2022/03/18 07:06:01;;;;;;;13.63;6.13;;;;;;;0.66;40.87;103143.69;5039671;28;20485;-80
2022/03/18 07:08:27;;;;;;;11.85;7.03;;;;;;;0.51;40.49;103149.34;5050422;28;20576;-80
2022/03/18 07:10:52;;;;;;;9.50;5.95;;;;;;;0.45;41.00;103138.50;5049514;28;20040;-81
2022/03/18 07:13:17;;;;;;;10.15;5.07;;;;;;;0.59;40.93;103132.81;5040555;28;20076;-79
2022/03/18 07:15:43;;;;;;;10.90;8.07;;;;;;;0.96;40.46;103141.09;5013610;28;20042;-81
2022/03/18 07:18:08;;;;;;;10.02;6.20;;;;;;;0.78;40.90;103139.53;5045492;28;20100;-80
2022/03/18 07:20:36;;;;;;;16.98;6.80;;;;;;;0.74;40.70;103135.78;5050845;28;20487;-78
2022/03/18 07:23:09;;;;;;;10.82;6.43;;;;;;;0.75;40.46;103141.84;5051187;28;20060;-81
2022/03/18 07:25:37;;;;;;;11.20;6.00;;;;;;;0.72;41.08;103139.91;5046101;28;20546;-77
2022/03/18 07:28:04;;;;;;;10.25;5.95;;;;;;;0.50;41.42;103132.03;5030395;28;20381;-79
2022/03/18 07:30:30;;;;;;;9.27;5.22;;;;;;;0.83;40.89;103146.00;5048793;28;20053;-80
2022/03/18 07:32:55;;;;;;;13.20;6.40;;;;;;;1.18;40.55;103145.44;5048930;28;20075;-78
2022/03/18 07:35:21;;;;;;;16.02;6.53;;;;;;;0.94;40.88;103123.63;5049842;28;20032;-77
2022/03/18 07:37:48;;;;;;;9.10;5.93;;;;;;;0.91;40.81;103144.94;5030837;28;20539;-80
2022/03/18 07:40:15;;;;;;;13.82;5.45;;;;;;;0.95;40.38;103143.53;5021929;28;20099;-78
2022/03/18 07:42:46;;;;;;;10.32;6.13;;;;;;;0.86;39.83;103135.91;5039542;28;20123;-77
2022/03/18 07:45:17;;;;;;;7.38;5.20;;;;;;;1.44;39.46;103138.09;5005225;28;20033;-78
2022/03/18 07:47:42;;;;;;;9.70;4.38;;;;;;;1.07;39.81;103139.38;5040470;28;20092;-76
2022/03/18 07:50:08;;;;;;;9.95;6.22;;;;;;;1.04;39.37;103147.78;5025522;28;20049;-78
2022/03/18 07:52:34;;;;;;;9.88;5.80;;;;;;;1.11;40.11;103135.38;5028009;28;20127;-79
2022/03/18 07:55:00;;;;;;;8.27;5.65;;;;;;;0.87;39.32;103153.25;5029651;28;20037;-76
2022/03/18 07:57:25;;;;;;;21.55;6.63;;;;;;;1.11;38.80;103149.19;5053952;28;20036;-77
2022/03/18 07:59:51;;;;;;;21.65;5.88;;;;;;;0.89;39.28;103143.94;5049323;28;20487;-77
2022/03/18 08:02:16;;;;;;;11.30;5.18;;;;;;;0.91;39.64;103132.00;5032049;28;20045;-77
2022/03/18 08:04:42;;;;;;;7.38;4.68;;;;;;;0.82;39.54;103151.97;5047534;28;20044;-77
2022/03/18 08:07:08;;;;;;;7.40;5.22;;;;;;;0.95;40.03;103141.84;5048983;28;20516;-76
2022/03/18 08:09:33;;;;;;;13.55;7.45;;;;;;;1.10;39.22;103142.22;5028826;28;20117;-76
2022/03/18 08:11:59;;;;;;;8.95;4.30;;;;;;;0.76;39.70;103142.00;5037799;28;20029;-77
2022/03/18 08:14:25;;;;;;;9.65;5.55;;;;;;;1.33;39.68;103159.59;5036085;28;20041;-77
2022/03/18 08:16:50;;;;;;;17.00;5.50;;;;;;;1.49;38.71;103161.75;5045825;28;20071;-77
2022/03/18 08:19:16;;;;;;;8.40;5.50;;;;;;;0.69;39.33;103157.75;5048583;28;20503;-77
2022/03/18 08:21:43;;;;;;;13.82;4.85;;;;;;;0.56;40.33;103142.91;5049020;28;20538;-75
2022/03/18 08:24:09;;;;;;;10.60;4.80;;;;;;;1.15;39.79;103148.69;5027149;28;20120;-76
2022/03/18 08:26:37;;;;;;;15.63;6.25;;;;;;;1.18;39.56;103136.00;5049507;28;20538;-76
2022/03/18 08:29:04;;;;;;;7.57;4.85;;;;;;;1.22;38.88;103132.88;5047908;28;20065;-77
2022/03/18 08:31:30;;;;;;;10.23;5.70;;;;;;;1.59;38.28;103135.88;5048633;28;20120;-76
2022/03/18 08:33:56;;;;;;;13.07;4.63;;;;;;;1.47;38.60;103151.31;5010437;28;20124;-76
2022/03/18 08:36:22;;;;;;;9.23;4.63;;;;;;;1.48;38.56;103145.34;5048738;28;20049;-78
2022/03/18 08:38:48;;;;;;;11.63;5.68;;;;;;;1.72;38.10;103142.03;5048757;28;20033;-77
2022/03/18 08:41:14;;;;;;;11.75;5.03;;;;;;;1.69;37.91;103135.81;5031610;28;20051;-76
2022/03/18 08:43:40;;;;;;;10.05;4.25;;;;;;;1.40;37.99;103143.81;5048282;28;20055;-77
2022/03/18 08:46:05;;;;;;;7.10;4.45;;;;;;;1.58;37.56;103118.53;5031325;28;20045;-78
2022/03/18 08:48:31;;;;;;;12.65;4.55;;;;;;;1.60;37.80;103142.84;5030331;28;20472;-77
2022/03/18 08:50:58;;;;;;;8.80;5.45;;;;;;;1.42;38.59;103139.66;5048138;28;20067;-79
2022/03/18 08:53:23;;;;;;;5.72;3.97;;;;;;;1.53;38.29;103132.78;5049609;28;20541;-79
2022/03/18 08:55:49;;;;;;;8.95;4.78;;;;;;;1.52;38.48;103143.88;5049919;28;20091;-79
2022/03/18 08:58:15;;;;;;;14.27;4.85;;;;;;;1.76;38.06;103141.50;5048684;28;20485;-78
2022/03/18 09:00:41;;;;;;;10.32;4.30;;;;;;;1.47;36.84;103150.38;5047705;28;20116;-77
2022/03/18 09:03:06;;;;;;;12.48;5.32;;;;;;;1.72;36.18;103140.34;5048721;28;20452;-76
2022/03/18 09:05:32;;;;;;;7.13;4.50;;;;;;;1.62;35.85;103136.09;5021033;28;20037;-77
2022/03/18 09:07:58;;;;;;;14.05;5.07;;;;;;;1.54;36.57;103126.81;5030570;28;20180;-78
2022/03/18 09:10:24;;;;;;;8.68;4.68;;;;;;;1.57;37.32;103145.19;5050991;28;20053;-78
2022/03/18 09:12:56;;;;;;;14.57;5.25;;;;;;;1.90;37.31;103136.63;5048583;28;20045;-78
2022/03/18 09:15:21;;;;;;;9.05;6.03;;;;;;;1.82;36.18;103150.63;5047817;28;20052;-77
2022/03/18 09:17:47;;;;;;;10.73;3.80;;;;;;;2.00;35.82;103148.59;5048247;28;20377;-77
2022/03/18 09:20:13;;;;;;;7.55;4.90;;;;;;;1.76;36.55;103136.31;5047458;28;20381;-77
2022/03/18 09:22:39;;;;;;;8.60;4.28;;;;;;;1.81;36.34;103153.13;5047679;28;20124;-77
2022/03/18 09:25:06;;;;;;;20.27;6.05;;;;;;;1.85;36.57;103142.19;5044167;28;20049;-78
2022/03/18 09:27:33;;;;;;;8.30;5.43;;;;;;;2.01;36.81;103136.56;5047342;28;20092;-77
2022/03/18 09:30:00;;;;;;;14.05;5.32;;;;;;;2.32;36.62;103138.19;5028059;28;20035;-78
2022/03/18 09:32:29;;;;;;;14.57;5.32;;;;;;;2.54;36.75;103143.31;5044184;28;21070;-78
2022/03/18 09:34:56;;;;;;;11.13;5.78;;;;;;;2.46;36.23;103130.59;5036929;28;20467;-77
2022/03/18 09:37:21;;;;;;;7.35;5.03;;;;;;;2.24;36.27;103141.84;5045026;28;20053;-78
2022/03/18 09:39:46;;;;;;;14.00;6.75;;;;;;;2.08;36.34;103110.34;5046144;28;20037;-77
2022/03/18 09:42:12;;;;;;;11.82;5.70;;;;;;;2.46;36.25;103130.59;5046886;28;20036;-78
2022/03/18 09:44:39;;;;;;;15.93;5.95;;;;;;;2.51;36.34;103127.53;5042384;28;20093;-78
2022/03/18 09:47:07;;;;;;;8.07;4.93;;;;;;;2.50;36.26;103130.00;5029929;28;20077;-78
2022/03/18 09:49:34;;;;;;;10.80;7.00;;;;;;;2.32;35.54;103125.22;5040095;28;20092;-76
2022/03/18 09:52:00;;;;;;;13.70;6.43;;;;;;;2.62;35.05;103124.84;5046297;28;20101;-77
2022/03/18 09:54:27;;;;;;;13.50;5.45;;;;;;;2.85;34.71;103124.00;5046071;28;20045;-78
2022/03/18 09:56:54;;;;;;;9.68;4.57;;;;;;;2.63;35.10;103129.28;5028966;28;20460;-77
2022/03/18 09:59:22;;;;;;;26.05;9.18;;;;;;;2.84;35.13;103117.94;5046632;28;20041;-78
2022/03/18 10:01:48;;;;;;;21.88;5.95;;;;;;;2.92;34.28;103119.38;5045475;28;20523;-78
2022/03/18 10:04:14;;;;;;;15.60;6.80;;;;;;;3.08;34.60;103120.53;5045258;28;20045;-76
2022/03/18 10:06:42;;;;;;;17.52;7.57;;;;;;;3.44;34.45;103092.88;5048008;28;20048;-77
2022/03/18 10:09:08;;;;;;;11.60;5.13;;;;;;;3.55;33.72;103110.13;5036857;28;20086;-78
2022/03/18 10:11:37;;;;;;;13.20;5.70;;;;;;;3.52;33.72;103116.00;5044432;28;20029;-79
2022/03/18 10:14:21;;;;;;;11.07;5.70;;;;;;;3.52;33.47;103117.72;5034373;28;20082;-78
2022/03/18 10:16:50;;;;;;;12.95;8.35;;;;;;;3.92;33.36;103086.81;5041416;28;20563;-76
2022/03/18 10:19:21;;;;;;;18.48;5.05;;;;;;;3.38;32.98;103102.03;5029565;28;20493;-80
2022/03/18 10:21:54;;;;;;;10.82;6.70;;;;;;;4.10;32.54;103107.97;5050525;28;20053;-76
2022/03/18 10:24:27;;;;;;;8.73;5.40;;;;;;;4.00;32.67;103115.13;5047532;28;20047;-75
2022/03/18 10:27:14;;;;;;;8.30;4.10;;;;;;;3.25;33.63;103096.72;5044365;28;20124;-77
2022/03/18 10:29:45;;;;;;;23.35;5.32;;;;;;;3.17;33.84;103097.88;5053171;28;20044;-78
2022/03/18 10:32:11;;;;;;;11.07;5.78;;;;;;;3.44;33.94;103093.81;5054358;28;20086;-79
2022/03/18 10:37:25;;;;;;;14.25;5.55;;;;;;;3.87;33.49;103093.38;5039563;28;20052;-77
2022/03/18 10:39:58;;;;;;;11.02;5.07;;;;;;;3.56;33.69;103084.31;5033254;28;20462;-74
2022/03/18 10:43:02;;;;;;;9.45;6.18;;;;;;;3.86;33.15;103084.66;5029290;28;20042;-74
2022/03/18 10:45:28;;;;;;;9.13;4.90;;;;;;;3.38;32.98;103091.66;5012991;28;20374;-76
2022/03/18 10:47:54;;;;;;;14.07;7.18;;;;;;;3.76;32.48;103079.63;5021925;28;20308;-76
2022/03/18 10:50:23;;;;;;;15.43;6.30;;;;;;;3.91;32.14;103084.97;5013356;28;20046;-76
2022/03/18 10:52:49;;;;;;;8.77;5.80;;;;;;;3.80;32.10;103084.25;5021157;28;20052;-75
2022/03/18 10:55:37;;;;;;;10.23;4.30;;;;;;;4.16;31.56;103082.41;5014333;28;20054;-74
2022/03/18 11:02:00;;;;;;;9.00;5.70;;;;;;;4.83;31.81;103080.88;5022244;28;20563;-74
2022/03/18 11:04:27;;;;;;;10.57;6.10;;;;;;;4.70;31.28;103081.75;5019600;28;20037;-75
2022/03/18 11:12:35;;;;;;;13.05;7.78;;;;;;;6.08;28.76;103061.97;5031951;28;20104;-76
2022/03/18 11:15:03;;;;;;;8.73;6.72;;;;;;;5.89;29.26;103072.06;5023372;28;20026;-74
2022/03/18 11:17:29;;;;;;;9.75;5.80;;;;;;;5.26;29.80;103076.78;5026535;28;20080;-75
2022/03/18 11:19:59;;;;;;;9.55;6.53;;;;;;;5.35;30.11;103070.38;5015238;28;20124;-78
2022/03/18 11:29:09;;;;;;;11.50;7.22;;;;;;;5.12;30.13;103067.19;4994885;28;20045;-77
2022/03/18 11:31:35;;;;;;;11.27;6.47;;;;;;;5.12;30.42;103061.97;4992871;28;20564;-77
2022/03/18 11:34:07;;;;;;;8.75;6.53;;;;;;;5.29;29.87;103042.22;5001396;28;20103;-77
2022/03/18 11:40:19;;;;;;;11.23;6.90;;;;;;;5.48;30.00;103042.63;5023336;28;20051;-75
2022/03/18 11:42:45;;;;;;;10.45;5.78;;;;;;;5.32;29.79;103032.03;5047666;28;20045;-75
2022/03/18 11:45:12;;;;;;;11.40;5.70;;;;;;;5.43;29.86;103037.91;5032541;28;20116;-76
2022/03/18 11:47:39;;;;;;;6.88;5.05;;;;;;;4.90;30.09;103022.38;5051904;28;20474;-77
2022/03/18 11:50:37;;;;;;;8.50;5.82;;;;;;;5.19;29.81;103032.03;5049904;28;20049;-75
2022/03/18 11:56:53;;;;;;;10.90;7.32;;;;;;;6.04;28.81;103026.13;5030883;28;20132;-75